createdAt,value
2019-01-16T00:03:56.535Z,-18.52
2019-01-16T00:06:42.518Z,-18.45
2019-01-16T00:09:28.492Z,-18.48
2019-01-16T00:12:14.491Z,-18.49
2019-01-16T00:15:00.494Z,-18.55
2019-01-16T00:17:46.461Z,-18.54
2019-01-16T00:20:32.449Z,-18.50
2019-01-16T00:23:18.438Z,-18.46
2019-01-16T00:26:04.483Z,-18.40
2019-01-16T00:31:24.144Z,-18.39
2019-01-16T00:34:10.131Z,-18.42
2019-01-16T00:36:56.133Z,-18.50
2019-01-16T00:42:15.887Z,-18.61
2019-01-16T00:45:01.869Z,-18.63
2019-01-16T00:47:47.870Z,-18.65
2019-01-16T00:50:33.870Z,-18.67
2019-01-16T00:53:19.861Z,-18.69
2019-01-16T00:56:05.845Z,-18.72
2019-01-16T01:03:59.505Z,-18.78
2019-01-16T01:06:45.491Z,-18.80
2019-01-16T01:12:05.318Z,-18.89
2019-01-16T01:17:25.257Z,-18.97
2019-01-16T01:20:11.251Z,-19.01
2019-01-16T01:22:57.220Z,-19.06
2019-01-16T01:25:43.208Z,-19.09
2019-01-16T01:28:29.184Z,-19.16
2019-01-16T01:31:15.173Z,-19.22
2019-01-16T01:36:48.771Z,-19.29
2019-01-16T01:39:34.754Z,-19.31
2019-01-16T01:44:58.284Z,-19.36
2019-01-16T01:47:44.281Z,-19.40
2019-01-16T01:50:30.268Z,-19.45
2019-01-16T01:53:16.303Z,-19.45
2019-01-16T01:56:02.281Z,-19.49
2019-01-16T01:58:48.265Z,-19.53
2019-01-16T02:01:34.250Z,-19.52
2019-01-16T02:06:57.672Z,-19.55
2019-01-16T02:09:43.669Z,-19.55
2019-01-16T02:12:29.646Z,-19.56
2019-01-16T02:15:15.635Z,-19.60
2019-01-16T02:18:01.611Z,-19.64
2019-01-16T02:20:47.623Z,-19.69
2019-01-16T02:23:33.605Z,-19.74
2019-01-16T02:26:19.602Z,-19.79
2019-01-16T02:29:05.595Z,-19.82
2019-01-16T02:31:51.579Z,-19.85
2019-01-16T02:34:37.556Z,-19.89
2019-01-16T02:37:23.546Z,-19.92
2019-01-16T02:40:09.522Z,-19.94
2019-01-16T02:42:55.512Z,-19.96
2019-01-16T02:48:29.084Z,-19.97
2019-01-16T02:56:36.817Z,-20.10
2019-01-16T02:59:22.919Z,-20.15
2019-01-16T03:02:08.910Z,-20.20
2019-01-16T03:04:54.932Z,-20.23
2019-01-16T03:10:28.716Z,-20.33
2019-01-16T03:13:14.690Z,-20.34
2019-01-16T03:16:00.782Z,-20.35
2019-01-16T03:23:58.488Z,-20.34
2019-01-16T03:34:29.976Z,-20.54
2019-01-16T03:37:15.949Z,-20.53
2019-01-16T03:40:01.943Z,-20.54
2019-01-16T03:45:35.500Z,-20.60
2019-01-16T03:48:21.499Z,-20.61
2019-01-16T03:53:41.301Z,-20.57
2019-01-16T03:56:27.284Z,-20.58
2019-01-16T03:59:13.259Z,-20.60
2019-01-16T04:04:36.875Z,-20.58
2019-01-16T04:07:22.872Z,-20.61
2019-01-16T04:10:08.849Z,-20.63
2019-01-16T04:12:54.836Z,-20.58
2019-01-16T04:15:40.820Z,-20.58
2019-01-16T04:21:04.266Z,-20.53
2019-01-16T04:23:50.254Z,-20.52
2019-01-16T04:26:36.236Z,-20.53
2019-01-16T04:37:11.381Z,-20.54
2019-01-16T04:45:05.347Z,-20.49
2019-01-16T04:47:51.347Z,-20.48
2019-01-16T04:50:37.480Z,-20.46
2019-01-16T04:56:11.071Z,-20.47
2019-01-16T05:01:44.630Z,-20.55
2019-01-16T05:04:30.611Z,-20.58
2019-01-16T05:09:50.650Z,-20.67
2019-01-16T05:12:36.637Z,-20.72
2019-01-16T05:18:36.075Z,-20.84
2019-01-16T05:26:43.314Z,-20.94
2019-01-16T05:32:03.431Z,-20.99
2019-01-16T05:34:49.400Z,-21.00
2019-01-16T05:37:35.397Z,-21.02
2019-01-16T05:40:21.408Z,-21.08
2019-01-16T05:43:07.381Z,-21.08
2019-01-16T05:48:30.825Z,-20.98
2019-01-16T05:53:51.044Z,-21.04
2019-01-16T05:56:37.056Z,-21.08
2019-01-16T06:02:36.303Z,-21.10
2019-01-16T06:08:23.012Z,-21.05
2019-01-16T06:11:09.013Z,-21.09
2019-01-16T06:16:32.364Z,-21.08
2019-01-16T06:19:18.350Z,-21.12
2019-01-16T06:22:04.341Z,-21.18
2019-01-16T06:24:50.344Z,-21.23
2019-01-16T06:27:36.320Z,-21.23
2019-01-16T06:30:43.871Z,-21.18
2019-01-16T06:33:29.841Z,-21.19
2019-01-16T06:38:49.516Z,-21.26
2019-01-16T06:46:46.983Z,-21.33
2019-01-16T06:49:32.961Z,-21.32
2019-01-16T06:52:18.952Z,-21.30
2019-01-16T06:55:04.924Z,-21.32
2019-01-16T06:57:50.912Z,-21.39
2019-01-16T07:00:36.895Z,-21.47
2019-01-16T07:08:34.483Z,-21.58
2019-01-16T07:11:20.479Z,-21.62
2019-01-16T07:14:06.470Z,-21.68
2019-01-16T07:16:52.444Z,-21.75
2019-01-16T07:19:38.432Z,-21.80
2019-01-16T07:22:24.430Z,-21.80
2019-01-16T07:25:10.428Z,-21.76
2019-01-16T07:27:56.408Z,-21.78
2019-01-16T07:30:42.394Z,-21.80
2019-01-16T07:33:28.372Z,-21.80
2019-01-16T07:36:14.360Z,-21.82
2019-01-16T07:39:00.331Z,-21.86
2019-01-16T07:41:46.328Z,-21.89
2019-01-16T07:44:32.303Z,-21.91
2019-01-16T07:47:18.304Z,-21.90
2019-01-16T07:50:04.294Z,-21.89
2019-01-16T07:55:24.054Z,-21.74
2019-01-16T08:05:51.999Z,-21.73
2019-01-16T08:14:06.763Z,-21.94
2019-01-16T08:19:26.933Z,-22.01
2019-01-16T08:22:12.920Z,-22.03
2019-01-16T08:24:58.895Z,-22.00
2019-01-16T08:27:44.890Z,-22.03
2019-01-16T08:30:31.062Z,-22.06
2019-01-16T08:33:17.059Z,-22.07
2019-01-16T08:36:03.026Z,-22.05
2019-01-16T08:38:49.037Z,-22.07
2019-01-16T08:41:35.028Z,-22.10
2019-01-16T08:46:58.467Z,-22.12
2019-01-16T08:49:44.487Z,-22.11
2019-01-16T08:52:30.461Z,-22.10
2019-01-16T08:55:16.455Z,-22.10
2019-01-16T08:58:02.439Z,-22.09
2019-01-16T09:03:25.999Z,-22.16
2019-01-16T09:06:12.012Z,-22.16
2019-01-16T09:08:58.012Z,-22.13
2019-01-16T09:11:44.003Z,-22.12
2019-01-16T09:14:29.989Z,-22.12
2019-01-16T09:17:15.966Z,-22.11
2019-01-16T09:22:35.863Z,-22.08
2019-01-16T09:25:13.782Z,-22.05
2019-01-16T09:27:59.759Z,-22.02
2019-01-16T09:33:19.501Z,-21.89
2019-01-16T09:41:13.117Z,-21.71
2019-01-16T09:43:59.103Z,-21.68
2019-01-16T09:46:45.091Z,-21.63
2019-01-16T09:49:31.070Z,-21.57
2019-01-16T09:52:17.092Z,-21.50
2019-01-16T09:55:03.068Z,-21.43
2019-01-16T09:57:49.059Z,-21.39
2019-01-16T10:08:43.499Z,-21.07
2019-01-16T10:11:29.474Z,-21.08
2019-01-16T10:14:15.488Z,-21.11
2019-01-16T10:17:01.474Z,-21.10
2019-01-16T10:19:47.466Z,-21.09
2019-01-16T10:27:44.695Z,-20.90
2019-01-16T10:33:44.655Z,-20.77
2019-01-16T10:36:30.640Z,-20.68
2019-01-16T10:39:16.612Z,-20.69
2019-01-16T10:42:02.627Z,-20.64
2019-01-16T10:44:48.616Z,-20.66
2019-01-16T10:47:34.637Z,-20.70
2019-01-16T10:50:20.611Z,-20.81
2019-01-16T10:53:06.616Z,-20.67
2019-01-16T10:55:52.590Z,-20.65
2019-01-16T10:58:38.592Z,-20.63
2019-01-16T11:12:14.470Z,-20.33
2019-01-16T11:25:16.099Z,-20.05
2019-01-16T11:30:36.046Z,-20.04
2019-01-16T11:33:22.083Z,-20.02
2019-01-16T11:36:08.059Z,-20.01
2019-01-16T11:38:54.052Z,-20.00
2019-01-16T11:41:40.029Z,-19.98
2019-01-16T11:44:26.028Z,-19.97
2019-01-16T11:49:59.606Z,-19.87
2019-01-16T11:52:45.593Z,-19.86
2019-01-16T11:55:31.584Z,-19.86
2019-01-16T11:58:17.564Z,-19.86
2019-01-16T12:01:03.554Z,-19.85
2019-01-16T12:03:49.528Z,-19.85
2019-01-16T12:06:35.540Z,-19.80
2019-01-16T12:12:15.276Z,-19.64
2019-01-16T12:20:44.256Z,-19.66
2019-01-16T12:26:17.864Z,-19.77
2019-01-16T12:29:03.840Z,-19.79
2019-01-16T12:37:01.239Z,-19.76
2019-01-16T12:39:47.215Z,-19.87
2019-01-16T12:42:33.202Z,-19.94
2019-01-16T12:45:19.182Z,-20.01
2019-01-16T12:48:05.172Z,-20.07
2019-01-16T12:50:51.150Z,-20.12
2019-01-16T12:53:37.140Z,-20.09
2019-01-16T12:56:35.764Z,-20.10
2019-01-16T13:07:06.947Z,-20.17
2019-01-16T13:09:52.933Z,-20.15
2019-01-16T13:12:38.937Z,-20.10
2019-01-16T13:15:46.510Z,-20.10
2019-01-16T13:21:20.069Z,-20.29
2019-01-16T13:24:06.052Z,-20.27
2019-01-16T13:29:26.020Z,-20.32
2019-01-16T13:34:49.587Z,-20.40
2019-01-16T13:42:43.507Z,-20.40
2019-01-16T13:45:29.581Z,-20.41
2019-01-16T13:48:15.567Z,-20.46
2019-01-16T13:51:01.556Z,-20.53
2019-01-16T13:53:47.545Z,-20.58
2019-01-16T13:56:33.522Z,-20.61
2019-01-16T13:59:19.520Z,-20.60
2019-01-16T14:04:39.508Z,-20.64
2019-01-16T14:07:25.584Z,-20.67
2019-01-16T14:10:11.580Z,-20.74
2019-01-16T14:12:57.576Z,-20.79
2019-01-16T14:15:43.567Z,-20.85
2019-01-16T14:18:29.545Z,-20.89
2019-01-16T14:21:15.532Z,-20.93
2019-01-16T14:32:00.725Z,-20.99
2019-01-16T14:34:46.695Z,-21.01
2019-01-16T14:37:32.684Z,-21.05
2019-01-16T14:40:18.668Z,-21.07
2019-01-16T14:43:04.672Z,-21.12
2019-01-16T14:51:12.168Z,-21.22
2019-01-16T14:59:05.931Z,-21.36
2019-01-16T15:01:51.919Z,-21.43
2019-01-16T15:04:37.896Z,-21.56
2019-01-16T15:07:23.886Z,-21.63
2019-01-16T15:10:09.859Z,-21.68
2019-01-16T15:12:55.843Z,-21.74
2019-01-16T15:15:41.815Z,-21.73
2019-01-16T15:21:05.350Z,-21.66
2019-01-16T15:28:59.367Z,-21.99
2019-01-16T15:31:45.351Z,-22.00
2019-01-16T15:34:31.504Z,-21.98
2019-01-16T15:40:05.083Z,-22.04
2019-01-16T15:42:51.071Z,-22.06
2019-01-16T15:45:37.060Z,-22.12
2019-01-16T15:48:23.047Z,-22.25
2019-01-16T15:51:09.047Z,-22.28
2019-01-16T15:53:55.040Z,-22.31
2019-01-16T15:56:41.012Z,-22.34
2019-01-16T15:59:27.004Z,-22.28
2019-01-16T16:02:13.089Z,-22.23
2019-01-16T16:04:59.075Z,-22.20
2019-01-16T16:07:45.049Z,-22.29
2019-01-16T16:10:31.035Z,-22.36
2019-01-16T16:13:17.071Z,-22.40
2019-01-16T16:16:03.073Z,-22.35
2019-01-16T16:18:49.060Z,-22.36
2019-01-16T16:29:17.185Z,-22.43
2019-01-16T16:32:03.210Z,-22.40
2019-01-16T16:34:49.202Z,-22.41
2019-01-16T16:37:35.210Z,-22.41
2019-01-16T16:40:21.191Z,-22.35
2019-01-16T16:43:07.200Z,-22.36
2019-01-16T16:51:18.153Z,-22.35
2019-01-16T16:54:04.149Z,-22.36
2019-01-16T16:56:50.128Z,-22.32
2019-01-16T16:59:36.143Z,-22.26
2019-01-16T17:02:22.244Z,-22.22
2019-01-16T17:05:08.268Z,-22.16
2019-01-16T17:10:41.864Z,-22.16
2019-01-16T17:23:57.555Z,-22.02
2019-01-16T17:29:31.141Z,-21.80
2019-01-16T17:35:08.923Z,-21.72
2019-01-16T17:37:54.902Z,-21.68
2019-01-16T17:40:40.897Z,-21.66
2019-01-16T17:46:14.496Z,-21.58
2019-01-16T17:49:00.463Z,-21.59
2019-01-16T17:51:46.463Z,-21.53
2019-01-16T17:54:32.437Z,-21.51
2019-01-16T17:57:18.441Z,-21.54
2019-01-16T18:00:04.425Z,-21.49
2019-01-16T18:02:50.428Z,-21.86
2019-01-16T18:05:36.400Z,-21.47
2019-01-16T18:11:16.624Z,-21.55
2019-01-16T18:14:02.664Z,-21.52
2019-01-16T18:19:36.238Z,-21.30
2019-01-16T18:22:22.308Z,-21.15
2019-01-16T18:25:08.309Z,-20.98
2019-01-16T18:36:09.904Z,-20.49
2019-01-16T18:38:55.901Z,-20.33
2019-01-16T18:41:41.903Z,-20.14
2019-01-16T18:44:27.907Z,-20.05
2019-01-16T18:52:38.894Z,-19.85
2019-01-16T18:58:25.964Z,-19.73
2019-01-16T19:03:45.983Z,-19.29
2019-01-16T19:09:09.272Z,-19.01
2019-01-16T19:17:03.158Z,-18.60
2019-01-16T19:19:49.147Z,-18.50
2019-01-16T19:22:35.157Z,-18.41
2019-01-16T19:25:21.140Z,-18.47
2019-01-16T19:28:07.158Z,-18.42
2019-01-16T19:30:53.169Z,-18.23
2019-01-16T19:36:12.877Z,-18.05
2019-01-16T19:38:58.911Z,-18.09
2019-01-16T19:41:44.895Z,-17.98
2019-01-16T19:44:30.913Z,-17.85
2019-01-16T19:50:04.510Z,-17.67
2019-01-16T19:52:50.488Z,-17.67
2019-01-16T19:55:36.496Z,-17.49
2019-01-16T20:01:10.083Z,-17.25
2019-01-16T20:03:56.060Z,-17.12
2019-01-16T20:06:42.058Z,-17.11
2019-01-16T20:09:28.128Z,-16.99
2019-01-16T20:14:48.146Z,-16.82
2019-01-16T20:17:34.134Z,-16.72
2019-01-16T20:20:20.143Z,-16.69
2019-01-16T20:23:11.091Z,-16.58
2019-01-16T20:25:54.001Z,-16.64
2019-01-16T20:28:39.984Z,-16.60
2019-01-16T20:34:03.477Z,-16.42
2019-01-16T20:36:49.486Z,-16.35
2019-01-16T20:39:35.454Z,-16.30
2019-01-16T20:42:21.443Z,-16.22
2019-01-16T20:45:07.435Z,-16.13
2019-01-16T20:47:53.445Z,-16.09
2019-01-16T20:50:39.432Z,-16.04
2019-01-16T20:53:25.440Z,-16.02
2019-01-16T20:56:11.408Z,-15.92
2019-01-16T21:01:34.931Z,-15.80
2019-01-16T21:06:54.971Z,-15.68
2019-01-16T21:09:40.957Z,-15.65
2019-01-16T21:15:01.161Z,-15.59
2019-01-16T21:18:08.734Z,-15.53
2019-01-16T21:20:54.757Z,-15.47
2019-01-16T21:23:40.731Z,-15.32
2019-01-16T21:26:26.737Z,-15.30
2019-01-16T21:29:12.730Z,-15.23
2019-01-16T21:31:58.688Z,-15.07
2019-01-16T21:34:44.683Z,-15.04
2019-01-16T21:37:30.663Z,-15.01
2019-01-16T21:40:16.652Z,-14.94
2019-01-16T21:43:02.626Z,-14.91
2019-01-16T21:48:24.215Z,-14.80
2019-01-16T21:51:10.204Z,-14.73
2019-01-16T21:53:56.178Z,-14.63
2019-01-16T21:56:42.168Z,-14.63
2019-01-16T22:04:49.548Z,-14.52
2019-01-16T22:07:35.524Z,-14.48
2019-01-16T22:10:43.072Z,-14.42
2019-01-16T22:13:29.065Z,-14.40
2019-01-16T22:19:02.664Z,-14.37
2019-01-16T22:21:48.632Z,-14.32
2019-01-16T22:24:34.659Z,-14.80
2019-01-16T22:27:20.635Z,-14.19
2019-01-16T22:30:06.655Z,-14.18
2019-01-16T22:32:52.633Z,-14.15
2019-01-16T22:35:38.623Z,-14.15
2019-01-16T22:38:24.598Z,-14.14
2019-01-16T22:41:10.598Z,-14.09
2019-01-16T22:43:56.571Z,-14.09
2019-01-16T22:46:42.560Z,-14.09
2019-01-16T22:52:16.140Z,-14.03
2019-01-16T22:55:02.121Z,-14.01
2019-01-16T22:57:48.108Z,-13.97
2019-01-16T23:03:34.737Z,-13.80
2019-01-16T23:06:20.714Z,-13.77
2019-01-16T23:09:06.736Z,-13.77
2019-01-16T23:11:52.717Z,-13.72
2019-01-16T23:14:38.704Z,-13.67
2019-01-16T23:17:24.681Z,-13.67
2019-01-16T23:20:10.682Z,-13.67
2019-01-16T23:25:44.345Z,-13.60
2019-01-16T23:31:17.905Z,-13.52
2019-01-16T23:36:51.491Z,-13.46
2019-01-16T23:42:25.071Z,-13.40
2019-01-16T23:45:11.046Z,-13.39
2019-01-16T23:47:57.065Z,-13.30
2019-01-16T23:50:43.052Z,-13.26
2019-01-16T23:53:29.051Z,-13.21
2019-01-16T23:56:15.028Z,-13.18
2019-01-16T23:59:01.136Z,-13.19
